Time;durP1;ratioP1;P1;durP2;ratioP2;P2;SDS_P1;SDS_P2;PMS_P1;PMS_P2;Temp;Humidity;BMP_temperature;BMP_pressure;BME280_temperature;BME280_humidity;BME280_pressure;Samples;Min_cycle;Max_cycle;Signal;HPM_P1;HPM_P2
2023/12/10 00:00:58;;;;;;;8.83;4.20;;;15.60;61.10;16.60;99231.00;;;;5060854;28;20180;-42
2023/12/10 00:03:24;;;;;;;8.50;4.30;;;15.60;61.10;16.60;99232.00;;;;5060220;28;20261;-42
2023/12/10 00:05:50;;;;;;;9.30;4.03;;;15.60;61.10;16.60;99220.00;;;;5061676;28;20260;-42
2023/12/10 00:08:16;;;;;;;7.87;3.90;;;15.60;61.20;16.60;99225.00;;;;5061078;28;20714;-42
2023/12/10 00:10:42;;;;;;;8.07;4.10;;;15.60;61.30;16.60;99234.00;;;;5062655;28;20844;-42
2023/12/10 00:13:09;;;;;;;8.77;4.50;;;15.60;61.30;16.60;99232.00;;;;5059901;28;20189;-42
2023/12/10 00:15:37;;;;;;;6.47;3.93;;;15.60;61.30;16.60;99245.00;;;;5063361;28;20185;-42
2023/12/10 00:18:04;;;;;;;9.10;4.53;;;15.60;61.40;16.60;99246.00;;;;5059506;28;20180;-42
2023/12/10 00:20:30;;;;;;;8.73;4.13;;;15.60;61.40;16.60;99244.00;;;;5060410;28;20176;-42
2023/12/10 00:22:55;;;;;;;7.70;4.00;;;15.60;61.40;16.60;99252.00;;;;5060078;28;20260;-42
2023/12/10 00:25:21;;;;;;;8.27;4.10;;;15.60;61.50;16.60;99238.00;;;;5061611;28;20190;-41
2023/12/10 00:27:47;;;;;;;8.80;4.27;;;15.60;61.50;16.60;99234.00;;;;5061929;28;20561;-42
2023/12/10 00:30:13;;;;;;;8.67;4.00;;;15.60;61.60;16.60;99254.00;;;;5059182;28;20206;-43
2023/12/10 00:32:39;;;;;;;8.77;4.00;;;15.60;61.50;16.50;99261.00;;;;5059346;28;20232;-42
2023/12/10 00:35:06;;;;;;;8.13;3.67;;;15.60;61.50;16.60;99261.00;;;;5051181;28;20637;-42
2023/12/10 00:37:32;;;;;;;7.93;3.87;;;15.60;61.70;16.50;99269.00;;;;5062513;28;20177;-43
2023/12/10 00:39:59;;;;;;;7.27;4.00;;;15.60;61.60;16.60;99265.00;;;;5058718;28;20178;-43
2023/12/10 00:42:25;;;;;;;6.60;3.63;;;15.60;61.70;16.60;99271.00;;;;5061975;28;20181;-43
2023/12/10 00:44:51;;;;;;;9.40;4.20;;;15.60;61.70;16.60;99271.00;;;;5061113;28;20191;-42
2023/12/10 00:47:16;;;;;;;8.20;3.60;;;15.60;61.70;16.60;99275.00;;;;5060914;28;20174;-42
2023/12/10 00:49:43;;;;;;;8.27;3.93;;;15.60;61.70;16.50;99272.00;;;;5062091;28;20289;-42
2023/12/10 00:52:08;;;;;;;8.87;4.10;;;15.60;61.60;16.60;99266.00;;;;5059564;28;20608;-42
2023/12/10 00:54:34;;;;;;;8.77;4.00;;;15.60;61.60;16.60;99276.00;;;;5062238;28;20170;-42
2023/12/10 00:57:00;;;;;;;7.43;3.90;;;15.60;61.70;16.60;99279.00;;;;5059715;28;20217;-43
2023/12/10 00:59:26;;;;;;;8.07;4.00;;;15.60;61.70;16.60;99280.00;;;;5062195;28;20604;-42
2023/12/10 01:01:52;;;;;;;7.87;3.90;;;15.60;61.70;16.60;99274.00;;;;5058763;28;20208;-42
2023/12/10 01:04:18;;;;;;;6.23;3.50;;;15.60;61.70;16.60;99285.00;;;;5057912;28;20175;-42
2023/12/10 01:06:45;;;;;;;8.40;4.20;;;15.60;61.70;16.60;99284.00;;;;5060787;28;20221;-42
2023/12/10 01:09:11;;;;;;;6.73;3.80;;;15.50;61.70;16.60;99283.00;;;;5059153;28;20225;-42
2023/12/10 01:11:37;;;;;;;8.73;3.93;;;15.60;61.90;16.60;99284.00;;;;5060610;28;20225;-43
2023/12/10 01:14:03;;;;;;;6.67;3.87;;;15.50;61.90;16.60;99288.00;;;;5058528;28;20225;-43
2023/12/10 01:16:29;;;;;;;8.10;3.70;;;15.60;61.90;16.60;99291.00;;;;5051477;28;20247;-42
2023/12/10 01:18:55;;;;;;;7.90;4.07;;;15.50;61.90;16.50;99286.00;;;;5054083;28;20232;-42
2023/12/10 01:21:21;;;;;;;7.23;3.93;;;15.50;61.90;16.50;99300.00;;;;5055654;28;20186;-43
2023/12/10 01:23:49;;;;;;;8.93;4.03;;;15.50;61.90;16.50;99288.00;;;;5060677;28;20192;-43
2023/12/10 01:26:15;;;;;;;8.60;4.07;;;15.50;61.90;16.50;99298.00;;;;5059715;28;20191;-43
2023/12/10 01:28:40;;;;;;;7.00;3.90;;;15.50;61.90;16.50;99306.00;;;;5064686;28;20198;-43
2023/12/10 01:31:06;;;;;;;8.03;3.97;;;15.50;61.90;16.50;99311.00;;;;5058143;28;20221;-42
2023/12/10 01:33:32;;;;;;;8.40;4.20;;;15.50;61.90;16.50;99322.00;;;;5057293;28;20553;-45
2023/12/10 01:35:58;;;;;;;7.07;3.90;;;15.50;61.90;16.50;99317.00;;;;5059144;28;20225;-43
2023/12/10 01:38:23;;;;;;;8.57;4.17;;;15.50;61.90;16.50;99315.00;;;;5060800;28;20236;-43
2023/12/10 01:40:49;;;;;;;6.97;3.90;;;15.50;61.90;16.50;99315.00;;;;5060195;28;20268;-43
2023/12/10 01:43:17;;;;;;;8.63;3.87;;;15.50;62.10;16.50;99318.00;;;;5059312;28;20198;-41
2023/12/10 01:45:49;;;;;;;8.10;4.20;;;15.50;62.10;16.50;99332.00;;;;5060885;28;20254;-42
2023/12/10 01:48:15;;;;;;;7.90;3.97;;;15.50;62.00;16.50;99323.00;;;;5059031;28;20186;-42
2023/12/10 01:50:40;;;;;;;7.17;3.90;;;15.50;62.00;16.50;99322.00;;;;5059944;28;20190;-42
2023/12/10 01:53:08;;;;;;;8.20;3.90;;;15.50;61.90;16.50;99326.00;;;;5040032;28;20219;-42
2023/12/10 01:55:33;;;;;;;7.67;3.97;;;15.50;62.00;16.50;99326.00;;;;5061336;28;20189;-42
2023/12/10 01:57:59;;;;;;;6.13;3.57;;;15.50;61.90;16.50;99342.00;;;;5057542;28;20686;-48
2023/12/10 02:00:26;;;;;;;7.20;3.73;;;15.50;61.90;16.50;99328.00;;;;5058281;28;20241;-42
2023/12/10 02:02:51;;;;;;;7.70;3.90;;;15.50;62.00;16.50;99336.00;;;;5046001;28;20174;-42
2023/12/10 02:05:17;;;;;;;8.00;3.60;;;15.50;61.90;16.50;99326.00;;;;5048669;28;20707;-42
2023/12/10 02:07:43;;;;;;;7.40;3.57;;;15.50;61.90;16.50;99339.00;;;;5060324;28;20651;-42
2023/12/10 02:10:09;;;;;;;6.00;3.50;;;15.50;61.90;16.50;99342.00;;;;5061981;28;20664;-43
2023/12/10 02:12:35;;;;;;;6.80;3.60;;;15.50;61.90;16.50;99340.00;;;;5061757;28;20533;-42
2023/12/10 02:15:17;;;;;;;7.97;3.90;;;15.50;62.00;16.50;99357.00;;;;5061802;28;20774;-42
2023/12/10 02:17:45;;;;;;;7.07;3.83;;;15.50;62.00;16.50;99351.00;;;;5061335;28;20265;-43
2023/12/10 02:20:12;;;;;;;7.07;3.90;;;15.50;62.00;16.50;99359.00;;;;5062545;28;20926;-41
2023/12/10 02:22:50;;;;;;;7.97;3.93;;;15.40;61.80;16.50;99357.00;;;;5065341;28;20173;-42
2023/12/10 02:25:15;;;;;;;7.30;3.80;;;15.40;61.80;16.50;99361.00;;;;5060873;28;20192;-45
2023/12/10 02:27:41;;;;;;;9.37;4.17;;;15.40;61.80;16.50;99369.00;;;;5030522;28;20249;-42
2023/12/10 02:30:09;;;;;;;8.80;4.00;;;15.40;61.80;16.50;99377.00;;;;5060834;28;20196;-42
2023/12/10 02:32:35;;;;;;;7.90;3.90;;;15.40;61.80;16.50;99370.00;;;;5060321;28;20166;-42
2023/12/10 02:35:00;;;;;;;6.77;3.80;;;15.40;61.80;16.40;99372.00;;;;5060755;28;20200;-42
2023/12/10 02:37:26;;;;;;;5.70;3.47;;;15.40;61.90;16.50;99379.00;;;;5063851;28;20253;-42
2023/12/10 02:39:52;;;;;;;6.43;3.53;;;15.40;61.80;16.50;99381.00;;;;5062754;28;20261;-42
2023/12/10 02:42:18;;;;;;;6.90;3.50;;;15.40;61.80;16.50;99386.00;;;;5061233;28;20171;-42
2023/12/10 02:44:43;;;;;;;7.63;3.53;;;15.40;61.90;16.40;99382.00;;;;5063443;28;20189;-42
2023/12/10 02:47:09;;;;;;;7.77;3.70;;;15.40;61.80;16.40;99374.00;;;;5061124;28;20198;-52
2023/12/10 02:49:35;;;;;;;6.33;3.50;;;15.40;61.80;16.40;99372.00;;;;5063975;28;20294;-43
2023/12/10 02:52:01;;;;;;;7.03;3.60;;;15.40;61.80;16.40;99366.00;;;;5061361;28;20232;-43
2023/12/10 02:54:26;;;;;;;7.77;3.63;;;15.40;61.80;16.40;99388.00;;;;5067110;28;20166;-43
2023/12/10 02:56:52;;;;;;;5.73;3.57;;;15.40;61.80;16.40;99384.00;;;;5068537;28;20189;-42
2023/12/10 02:59:18;;;;;;;6.53;3.63;;;15.30;61.70;16.40;99390.00;;;;5063021;28;20205;-42
2023/12/10 03:01:44;;;;;;;5.13;3.27;;;15.40;61.90;16.40;99396.00;;;;5063683;28;20178;-42
2023/12/10 03:04:10;;;;;;;6.03;3.33;;;15.40;61.80;16.40;99389.00;;;;5057804;28;20624;-42
2023/12/10 03:06:36;;;;;;;7.53;3.70;;;15.40;61.80;16.40;99389.00;;;;5063813;28;20284;-42
2023/12/10 03:09:02;;;;;;;7.33;3.27;;;15.30;61.70;16.30;99390.00;;;;5061144;28;20294;-42
2023/12/10 03:11:27;;;;;;;6.80;3.50;;;15.30;61.70;16.40;99399.00;;;;5058982;28;20173;-42
2023/12/10 03:13:53;;;;;;;5.63;3.10;;;15.30;61.70;16.30;99400.00;;;;5061883;28;20202;-42
2023/12/10 03:16:19;;;;;;;6.53;3.37;;;15.30;61.70;16.30;99416.00;;;;5060800;28;20256;-42
2023/12/10 03:18:44;;;;;;;7.00;3.40;;;15.30;61.80;16.40;99423.00;;;;5058818;28;20183;-43
2023/12/10 03:21:10;;;;;;;6.37;3.50;;;15.30;61.70;16.30;99424.00;;;;5061149;28;20210;-42
2023/12/10 03:23:36;;;;;;;7.27;3.20;;;15.30;61.70;16.30;99431.00;;;;5059849;28;20185;-42
2023/12/10 03:26:02;;;;;;;6.93;3.23;;;15.30;61.70;16.30;99428.00;;;;5055584;28;20217;-42
2023/12/10 03:28:27;;;;;;;7.53;3.87;;;15.30;61.70;16.30;99426.00;;;;5064243;28;20667;-45
2023/12/10 03:30:53;;;;;;;5.93;3.43;;;15.30;61.70;16.30;99440.00;;;;5061909;28;20564;-42
2023/12/10 03:33:19;;;;;;;7.03;3.57;;;15.30;61.70;16.30;99431.00;;;;5057948;28;20598;-42
2023/12/10 03:35:45;;;;;;;6.07;3.13;;;15.30;61.70;16.30;99440.00;;;;5062517;28;20672;-42
2023/12/10 03:38:10;;;;;;;6.30;3.10;;;15.30;62.50;16.30;99450.00;;;;5060421;28;20174;-42
2023/12/10 03:40:36;;;;;;;6.80;3.30;;;15.30;61.70;16.30;99456.00;;;;5063191;28;20174;-41
2023/12/10 03:43:02;;;;;;;6.07;2.97;;;15.30;61.70;16.30;99470.00;;;;5059905;28;20178;-42
2023/12/10 03:45:28;;;;;;;6.53;3.30;;;15.30;61.70;16.30;99458.00;;;;5062721;28;20274;-42
2023/12/10 03:47:53;;;;;;;6.53;3.30;;;15.30;61.70;16.30;99465.00;;;;5058279;28;20198;-42
2023/12/10 03:50:19;;;;;;;7.63;3.17;;;15.30;61.70;16.30;99466.00;;;;5061485;28;20260;-42
2023/12/10 03:52:45;;;;;;;4.80;2.87;;;15.20;61.60;16.00;99473.00;;;;5051955;28;20281;-42
2023/12/10 03:55:11;;;;;;;5.30;2.83;;;15.20;61.60;16.30;99471.00;;;;5046303;28;20273;-42
2023/12/10 03:57:37;;;;;;;4.53;3.07;;;15.20;61.60;16.30;99466.00;;;;5035797;28;21252;-42
2023/12/10 04:00:06;;;;;;;6.97;3.43;;;15.20;61.60;16.30;99464.00;;;;5044121;28;20220;-42
2023/12/10 04:02:32;;;;;;;6.87;3.20;;;15.20;61.60;16.30;99462.00;;;;5054654;28;20692;-43
2023/12/10 04:04:58;;;;;;;5.90;3.37;;;15.20;61.60;16.30;99470.00;;;;5072759;28;20173;-43
2023/12/10 04:07:25;;;;;;;6.43;2.90;;;15.20;61.60;16.30;99469.00;;;;5063138;28;20640;-42
2023/12/10 04:09:51;;;;;;;6.23;3.20;;;15.20;61.60;16.20;99481.00;;;;5062071;28;20255;-42
2023/12/10 04:12:17;;;;;;;5.80;3.20;;;15.20;61.60;16.20;99477.00;;;;5061474;28;20178;-42
2023/12/10 04:14:47;;;;;;;5.53;2.90;;;15.20;61.70;16.20;99482.00;;;;5060621;28;20555;-42
2023/12/10 04:17:12;;;;;;;4.87;3.10;;;15.20;61.70;16.20;99489.00;;;;5043304;28;20197;-42
2023/12/10 04:19:38;;;;;;;5.83;2.97;;;15.20;61.70;16.20;99484.00;;;;5045571;28;20167;-41
2023/12/10 04:22:04;;;;;;;6.03;3.20;;;15.20;61.90;16.10;99493.00;;;;5059679;28;20664;-41
2023/12/10 04:24:30;;;;;;;6.17;3.30;;;15.10;61.80;16.20;99488.00;;;;5059430;28;20201;-42
2023/12/10 04:26:55;;;;;;;5.20;2.90;;;15.10;61.80;16.20;99483.00;;;;5060716;28;20201;-42
2023/12/10 04:29:21;;;;;;;7.50;3.27;;;15.10;62.10;16.20;99474.00;;;;5062121;28;20340;-41
2023/12/10 04:31:47;;;;;;;6.43;3.27;;;15.20;62.50;16.20;99474.00;;;;5062684;28;20177;-37
2023/12/10 04:34:13;;;;;;;6.00;3.17;;;15.10;64.20;16.10;99488.00;;;;5054586;28;20423;-45
2023/12/10 04:36:39;;;;;;;4.47;2.80;;;15.20;62.90;16.20;99483.00;;;;5062963;28;20189;-43
2023/12/10 04:39:04;;;;;;;6.67;3.27;;;15.10;62.30;16.20;99483.00;;;;5059437;28;20162;-43
2023/12/10 04:41:30;;;;;;;4.93;2.90;;;15.20;62.20;16.20;99485.00;;;;5062636;28;20222;-43
2023/12/10 04:43:56;;;;;;;6.07;3.20;;;15.20;62.20;16.10;99488.00;;;;5060313;28;20255;-42
2023/12/10 04:46:21;;;;;;;6.07;3.17;;;15.10;62.00;16.20;99483.00;;;;5060048;28;20266;-43
2023/12/10 04:48:47;;;;;;;5.10;2.80;;;15.10;62.10;16.20;99495.00;;;;5058064;28;20264;-43
2023/12/10 04:51:13;;;;;;;6.80;3.30;;;15.10;62.00;16.10;99507.00;;;;5060670;28;20225;-43
2023/12/10 04:53:39;;;;;;;6.67;3.23;;;15.10;61.90;16.10;99488.00;;;;5062593;28;20174;-43
2023/12/10 04:56:05;;;;;;;5.00;2.70;;;15.10;61.90;16.10;99498.00;;;;5059235;28;20829;-43
2023/12/10 04:58:31;;;;;;;6.07;3.10;;;15.10;61.90;16.10;99497.00;;;;5063035;28;20205;-42
2023/12/10 05:00:57;;;;;;;4.40;2.90;;;15.10;61.90;16.10;99505.00;;;;5060655;28;20298;-43
2023/12/10 05:03:22;;;;;;;6.40;3.10;;;15.10;61.90;16.10;99497.00;;;;5059651;28;20209;-43
2023/12/10 05:05:48;;;;;;;4.97;2.90;;;15.10;61.80;16.10;99498.00;;;;5061954;28;20201;-43
2023/12/10 05:08:14;;;;;;;5.90;3.30;;;15.10;61.80;16.10;99502.00;;;;5061035;28;20185;-42
2023/12/10 05:10:40;;;;;;;5.70;2.90;;;15.10;61.80;16.10;99504.00;;;;5063368;28;20211;-43
2023/12/10 05:13:06;;;;;;;5.73;3.10;;;15.10;61.80;16.10;99499.00;;;;5060346;28;20271;-43
2023/12/10 05:15:32;;;;;;;6.43;2.93;;;15.10;61.90;16.10;99504.00;;;;5063922;28;20262;-43
2023/12/10 05:18:01;;;;;;;5.83;3.03;;;15.10;62.00;16.10;99514.00;;;;5061441;28;20573;-43
2023/12/10 05:20:27;;;;;;;5.23;2.87;;;15.10;62.10;16.10;99517.00;;;;5062731;28;20188;-43
2023/12/10 05:22:52;;;;;;;6.90;3.10;;;15.10;62.20;16.10;99518.00;;;;5062018;28;20185;-43
2023/12/10 05:25:18;;;;;;;4.43;2.90;;;15.10;62.20;16.10;99522.00;;;;5061220;28;20227;-43
2023/12/10 05:27:44;;;;;;;5.27;2.97;;;15.00;62.00;16.10;99525.00;;;;5063079;28;20209;-43
2023/12/10 05:30:11;;;;;;;5.67;3.13;;;15.10;62.20;16.10;99548.00;;;;5060057;28;20202;-43
2023/12/10 05:32:37;;;;;;;6.10;3.10;;;15.00;62.20;16.10;99536.00;;;;5059423;28;20170;-44
2023/12/10 05:35:03;;;;;;;5.23;3.07;;;15.00;62.10;16.00;99543.00;;;;5059166;28;20189;-43
2023/12/10 05:37:29;;;;;;;4.93;2.77;;;15.00;62.10;16.00;99557.00;;;;5051804;28;20525;-43
2023/12/10 05:39:54;;;;;;;6.20;3.10;;;15.00;62.30;16.00;99543.00;;;;5061389;28;20193;-44
2023/12/10 05:42:20;;;;;;;7.93;2.87;;;15.00;62.50;16.00;99548.00;;;;5061459;28;20262;-42
2023/12/10 05:44:48;;;;;;;7.17;3.43;;;15.00;62.50;16.00;99528.00;;;;5062294;28;20260;-44
2023/12/10 05:47:14;;;;;;;6.17;3.00;;;15.00;62.70;16.00;99545.00;;;;5060397;28;20210;-43
2023/12/10 05:49:39;;;;;;;5.47;2.90;;;15.00;62.70;16.00;99538.00;;;;5066055;28;20263;-43
2023/12/10 05:52:05;;;;;;;5.50;2.63;;;15.00;62.60;16.00;99550.00;;;;5063517;28;20253;-43
2023/12/10 05:54:31;;;;;;;5.27;2.80;;;15.00;62.70;16.10;99552.00;;;;5066478;28;20174;-43
2023/12/10 05:56:57;;;;;;;6.47;3.10;;;15.00;62.70;16.00;99555.00;;;;5064332;28;20233;-44
2023/12/10 05:59:22;;;;;;;7.03;3.00;;;15.00;62.90;16.00;99568.00;;;;5065712;28;20174;-43
2023/12/10 06:01:48;;;;;;;5.97;2.90;;;15.00;63.10;16.00;99570.00;;;;5065581;28;20224;-43
2023/12/10 06:04:14;;;;;;;5.23;2.87;;;15.00;63.00;16.00;99563.00;;;;5061930;28;20182;-47
2023/12/10 06:06:40;;;;;;;4.60;3.00;;;15.00;62.90;16.00;99587.00;;;;5053934;28;20229;-43
2023/12/10 06:09:05;;;;;;;5.80;2.90;;;15.00;62.80;16.00;99584.00;;;;5059459;28;20201;-43
2023/12/10 06:11:31;;;;;;;5.60;2.80;;;15.00;62.70;16.00;99588.00;;;;5066232;28;20209;-44
2023/12/10 06:13:57;;;;;;;5.07;2.90;;;15.00;62.70;16.00;99581.00;;;;5063370;28;20242;-43
2023/12/10 06:16:23;;;;;;;5.73;2.60;;;15.00;62.70;16.00;99590.00;;;;5064215;28;20228;-45
2023/12/10 06:18:48;;;;;;;5.47;2.80;;;15.00;62.60;16.00;99595.00;;;;5064061;28;20667;-42
2023/12/10 06:21:14;;;;;;;5.60;2.73;;;15.00;62.70;16.00;99606.00;;;;5062068;28;20560;-43
2023/12/10 06:23:40;;;;;;;4.63;2.90;;;15.00;62.70;16.00;99595.00;;;;5064284;28;20176;-43
2023/12/10 06:26:06;;;;;;;5.73;2.53;;;15.00;62.60;16.00;99607.00;;;;5061807;28;20281;-43
2023/12/10 06:28:31;;;;;;;6.17;2.73;;;15.00;62.60;16.00;99611.00;;;;5065401;28;20184;-43
2023/12/10 06:30:58;;;;;;;5.10;2.70;;;15.00;62.60;16.00;99614.00;;;;5063318;28;20587;-43
2023/12/10 06:33:23;;;;;;;5.37;2.90;;;15.00;62.60;16.00;99620.00;;;;5060655;28;21393;-43
2023/12/10 06:35:50;;;;;;;5.07;2.70;;;15.00;62.60;16.00;99624.00;;;;5064266;28;20193;-43
2023/12/10 06:38:15;;;;;;;3.67;2.57;;;14.90;62.60;16.00;99636.00;;;;5062977;28;20178;-44
2023/12/10 06:40:41;;;;;;;3.20;2.53;;;14.90;62.50;16.00;99639.00;;;;5065622;28;20234;-43
2023/12/10 06:43:07;;;;;;;4.93;2.90;;;14.90;62.50;16.00;99642.00;;;;5062179;28;20676;-43
2023/12/10 06:45:33;;;;;;;3.70;2.50;;;14.90;62.50;16.00;99658.00;;;;5065135;28;20678;-43
2023/12/10 06:47:59;;;;;;;4.23;2.47;;;14.90;62.50;15.90;99647.00;;;;5062559;28;20203;-44
2023/12/10 06:50:26;;;;;;;2.87;2.40;;;14.90;62.50;15.90;99657.00;;;;5064572;28;20255;-43
2023/12/10 06:52:52;;;;;;;3.93;2.53;;;15.00;62.60;15.90;99672.00;;;;5064022;28;20551;-44
2023/12/10 06:55:17;;;;;;;4.80;2.73;;;14.90;62.80;15.90;99675.00;;;;5062128;28;20194;-44
2023/12/10 06:57:43;;;;;;;4.67;2.23;;;14.90;62.90;15.90;99680.00;;;;5064565;28;20193;-43
2023/12/10 07:00:10;;;;;;;5.00;2.67;;;14.90;62.90;15.90;99682.00;;;;5061766;28;20650;-44
2023/12/10 07:02:36;;;;;;;5.37;2.80;;;14.90;63.50;15.90;99715.00;;;;5061967;28;20234;-43
2023/12/10 07:05:01;;;;;;;4.03;2.53;;;14.90;62.70;15.90;99717.00;;;;5078371;28;20260;-44
2023/12/10 07:07:27;;;;;;;3.53;2.47;;;14.90;62.60;15.90;99711.00;;;;5064316;28;20181;-43
2023/12/10 07:09:53;;;;;;;6.10;2.60;;;14.90;62.60;15.90;99717.00;;;;5058995;28;20233;-44
2023/12/10 07:12:19;;;;;;;5.60;2.93;;;14.90;62.60;15.90;99721.00;;;;5059244;28;20174;-43
2023/12/10 07:14:44;;;;;;;4.27;2.70;;;14.90;62.50;15.90;99662.00;;;;5063568;28;20664;-43
2023/12/10 07:17:10;;;;;;;4.47;2.50;;;14.90;62.50;15.90;99716.00;;;;5061662;28;20244;-42
2023/12/10 07:19:36;;;;;;;4.63;2.70;;;14.90;62.50;15.90;99715.00;;;;5064234;28;20185;-42
2023/12/10 07:22:02;;;;;;;4.50;2.40;;;14.90;62.50;15.90;99720.00;;;;5062135;28;20177;-42
2023/12/10 07:24:28;;;;;;;3.90;2.57;;;14.90;62.50;15.80;99728.00;;;;5064603;28;20182;-43
2023/12/10 07:26:53;;;;;;;3.90;2.50;;;14.90;62.50;15.90;99729.00;;;;5063600;28;20193;-43
2023/12/10 07:29:19;;;;;;;3.07;2.33;;;14.80;62.30;15.90;99738.00;;;;5057432;28;20667;-43
2023/12/10 07:31:45;;;;;;;4.33;2.50;;;14.80;62.30;15.80;99743.00;;;;5064225;28;20560;-43
2023/12/10 07:34:11;;;;;;;5.07;2.80;;;14.90;62.40;15.80;99741.00;;;;5057626;28;20251;-43
2023/12/10 07:36:36;;;;;;;4.60;2.50;;;14.90;62.30;15.90;99759.00;;;;5063974;28;20193;-45
2023/12/10 07:39:02;;;;;;;3.70;2.40;;;14.80;62.20;15.90;99757.00;;;;5061407;28;20209;-43
2023/12/10 07:41:28;;;;;;;3.77;2.50;;;14.80;62.30;15.80;99762.00;;;;5064147;28;20192;-43
2023/12/10 07:43:54;;;;;;;4.53;2.57;;;14.80;62.20;15.90;99761.00;;;;5062733;28;20544;-43
2023/12/10 07:46:20;;;;;;;3.90;2.40;;;14.80;62.30;15.90;99769.00;;;;5065339;28;20208;-44
2023/12/10 07:48:45;;;;;;;4.30;2.50;;;14.80;62.20;15.80;99775.00;;;;5063303;28;20193;-44
2023/12/10 07:51:12;;;;;;;4.13;2.40;;;14.80;62.30;15.80;99786.00;;;;5061538;28;20231;-43
2023/12/10 07:53:38;;;;;;;4.40;2.47;;;14.80;62.20;15.80;99795.00;;;;5063831;28;20181;-43
2023/12/10 07:56:04;;;;;;;3.40;2.30;;;14.80;62.20;15.80;99801.00;;;;5061268;28;20194;-43
2023/12/10 07:58:30;;;;;;;4.10;2.40;;;14.80;62.20;15.80;99789.00;;;;5058198;28;20184;-43
2023/12/10 08:00:56;;;;;;;3.20;2.40;;;14.80;62.30;15.90;99812.00;;;;5063574;28;20181;-43
2023/12/10 08:03:22;;;;;;;3.83;2.50;;;14.80;62.20;15.80;99805.00;;;;5061872;28;20186;-43
2023/12/10 08:05:47;;;;;;;4.60;2.73;;;14.80;62.20;15.80;99797.00;;;;5064556;28;20225;-43
2023/12/10 08:08:13;;;;;;;4.70;2.63;;;14.80;62.20;15.80;99817.00;;;;5060826;28;20209;-43
2023/12/10 08:10:39;;;;;;;5.27;2.43;;;14.80;62.50;15.80;99832.00;;;;5062145;28;20208;-42
2023/12/10 08:13:05;;;;;;;5.63;2.57;;;14.80;62.90;15.80;99824.00;;;;5059642;28;20257;-42
2023/12/10 08:15:31;;;;;;;4.73;2.53;;;14.70;62.80;15.80;99825.00;;;;5063498;28;20276;-43
2023/12/10 08:17:56;;;;;;;3.27;2.20;;;14.70;62.90;15.80;99829.00;;;;5059951;28;20178;-43
2023/12/10 08:20:22;;;;;;;5.93;2.77;;;14.80;63.10;15.80;99837.00;;;;5053419;28;20280;-44
2023/12/10 08:22:48;;;;;;;4.13;2.50;;;14.80;63.70;15.80;99840.00;;;;5060696;28;20528;-44
2023/12/10 08:25:14;;;;;;;3.80;2.60;;;14.80;63.80;15.80;99846.00;;;;5061607;28;20202;-46
2023/12/10 08:27:40;;;;;;;4.17;2.47;;;14.90;63.90;15.80;99843.00;;;;5065646;28;20178;-49
2023/12/10 08:30:06;;;;;;;5.67;2.30;;;15.00;63.80;15.90;99853.00;;;;5061024;28;20563;-45
2023/12/10 08:32:33;;;;;;;3.07;2.20;;;15.10;63.50;16.00;99844.00;;;;5059949;28;20174;-44
2023/12/10 08:34:58;;;;;;;3.77;2.50;;;15.20;63.50;16.00;99860.00;;;;5060642;28;20202;-44
2023/12/10 08:37:24;;;;;;;4.37;2.80;;;15.30;63.20;16.10;99791.00;;;;5050302;28;20754;-45
2023/12/10 08:39:50;;;;;;;4.57;2.40;;;15.50;63.10;16.10;99865.00;;;;5059108;28;20632;-43
2023/12/10 08:42:16;;;;;;;4.57;2.60;;;15.60;62.90;16.30;99863.00;;;;5060985;28;20680;-44
2023/12/10 08:44:42;;;;;;;5.20;2.57;;;15.80;62.70;16.40;99872.00;;;;5062925;28;20187;-44
2023/12/10 08:47:07;;;;;;;5.07;2.50;;;15.90;62.30;16.50;99877.00;;;;5059939;28;20205;-44
2023/12/10 08:49:33;;;;;;;5.77;2.60;;;16.00;62.10;16.60;99887.00;;;;5061971;28;20212;-44
2023/12/10 08:51:59;;;;;;;6.07;2.33;;;16.20;62.00;16.70;99880.00;;;;5061125;28;20193;-44
2023/12/10 08:54:25;;;;;;;5.13;2.50;;;16.30;61.70;16.80;99873.00;;;;5062324;28;20182;-44
2023/12/10 08:56:50;;;;;;;4.30;2.47;;;16.50;61.60;17.00;99904.00;;;;5062038;28;20242;-44
2023/12/10 08:59:16;;;;;;;4.83;2.73;;;16.60;61.40;17.00;99881.00;;;;5061569;28;20187;-44
2023/12/10 09:01:43;;;;;;;7.37;2.40;;;16.80;61.30;17.20;99894.00;;;;5054177;28;20239;-44
2023/12/10 09:04:09;;;;;;;5.30;2.47;;;16.90;61.20;17.20;99900.00;;;;5058090;28;20178;-46
2023/12/10 09:06:34;;;;;;;4.73;2.47;;;17.00;61.00;17.40;99903.00;;;;5059842;28;20577;-41
2023/12/10 09:09:00;;;;;;;8.27;2.90;;;17.00;61.40;17.50;99896.00;;;;5060743;28;20190;-42
2023/12/10 09:11:26;;;;;;;10.70;2.90;;;17.10;61.30;17.60;99911.00;;;;5062005;28;20215;-42
2023/12/10 09:13:52;;;;;;;7.70;2.60;;;17.20;61.90;17.70;99916.00;;;;5059239;28;20266;-43
2023/12/10 09:16:18;;;;;;;6.77;2.60;;;17.30;61.30;17.80;99920.00;;;;5057029;28;20237;-42
2023/12/10 09:18:44;;;;;;;4.60;2.60;;;17.40;62.00;17.80;99922.00;;;;5057772;28;20664;-42
2023/12/10 09:21:10;;;;;;;8.73;2.60;;;17.50;61.20;17.90;99931.00;;;;5058840;28;20175;-43
2023/12/10 09:23:36;;;;;;;6.17;2.83;;;17.60;61.50;18.00;99933.00;;;;5066772;28;20189;-43
2023/12/10 09:26:02;;;;;;;6.43;2.63;;;17.70;61.30;18.10;99948.00;;;;5064638;28;20237;-42
2023/12/10 09:28:28;;;;;;;3.03;2.13;;;17.80;61.10;18.20;99945.00;;;;5067007;28;20181;-42
2023/12/10 09:30:54;;;;;;;5.27;2.40;;;17.80;61.00;18.30;99943.00;;;;5065198;28;20216;-43
2023/12/10 09:33:19;;;;;;;4.43;2.37;;;17.90;61.30;18.40;99942.00;;;;5057063;28;20563;-42
2023/12/10 09:35:45;;;;;;;6.53;2.70;;;17.90;61.80;18.40;99946.00;;;;5066707;28;20225;-43
2023/12/10 09:38:11;;;;;;;5.63;2.63;;;17.90;62.30;18.50;99949.00;;;;5064285;28;20183;-42
2023/12/10 09:40:38;;;;;;;6.00;2.60;;;18.00;62.60;18.50;99954.00;;;;5066961;28;20180;-42
2023/12/10 09:43:04;;;;;;;5.20;2.53;;;18.00;63.00;18.50;99954.00;;;;5062649;28;20186;-41
2023/12/10 09:45:30;;;;;;;5.23;2.33;;;17.90;63.20;18.50;99960.00;;;;5055272;28;20193;-43
2023/12/10 09:47:56;;;;;;;4.43;2.30;;;17.90;63.20;18.60;99959.00;;;;5065174;28;20247;-41
2023/12/10 09:50:22;;;;;;;5.03;2.47;;;17.90;63.30;18.60;99960.00;;;;5063778;28;20229;-42
2023/12/10 09:52:48;;;;;;;7.37;2.67;;;17.90;63.10;18.60;99958.00;;;;5047953;28;20189;-42
2023/12/10 09:55:13;;;;;;;5.03;2.70;;;17.90;63.00;18.60;99963.00;;;;5064573;28;20182;-43
2023/12/10 09:57:39;;;;;;;5.43;2.27;;;17.80;63.10;18.50;99962.00;;;;5066573;28;20208;-43
2023/12/10 10:00:06;;;;;;;6.00;2.50;;;17.80;63.40;18.60;99964.00;;;;5063104;28;20178;-43
2023/12/10 10:02:35;;;;;;;5.43;2.40;;;17.80;63.40;18.50;99950.00;;;;5062611;28;20203;-43
2023/12/10 10:05:02;;;;;;;5.47;2.43;;;17.70;63.30;18.50;99963.00;;;;5079973;28;20181;-43
2023/12/10 10:07:31;;;;;;;4.43;2.40;;;17.70;63.50;18.50;99980.00;;;;5060265;28;20331;-43
2023/12/10 10:09:57;;;;;;;6.77;2.80;;;17.70;63.70;18.50;99964.00;;;;5064121;28;20197;-44
2023/12/10 10:12:29;;;;;;;3.97;2.30;;;17.70;63.90;18.50;99972.00;;;;5064910;28;20324;-44
2023/12/10 10:14:55;;;;;;;7.50;2.87;;;17.70;64.50;18.50;99979.00;;;;5063632;28;20189;-42
2023/12/10 10:17:32;;;;;;;6.67;2.40;;;17.70;64.50;18.50;99968.00;;;;5064930;28;20196;-43
2023/12/10 10:19:58;;;;;;;3.77;2.37;;;17.70;64.50;18.50;99956.00;;;;5064149;28;20224;-43
2023/12/10 10:22:24;;;;;;;6.43;2.60;;;17.70;64.70;18.50;99965.00;;;;5064913;28;20303;-43
2023/12/10 10:24:56;;;;;;;6.77;2.77;;;17.60;64.40;18.50;99961.00;;;;5065650;28;20185;-43
2023/12/10 10:27:22;;;;;;;6.03;2.60;;;17.60;64.40;18.50;99967.00;;;;5065124;28;20201;-43
2023/12/10 10:29:52;;;;;;;8.03;2.60;;;17.50;64.30;18.40;99970.00;;;;5052563;28;20283;-43
2023/12/10 10:32:21;;;;;;;4.57;2.80;;;17.60;65.10;18.40;99965.00;;;;5063656;28;20223;-43
2023/12/10 10:34:47;;;;;;;6.43;2.87;;;17.60;65.50;18.40;99945.00;;;;5076393;28;20225;-43
2023/12/10 10:37:17;;;;;;;4.47;2.47;;;17.60;65.50;18.40;99948.00;;;;5056381;28;20297;-43
2023/12/10 10:39:44;;;;;;;6.40;2.40;;;17.60;65.40;18.40;99948.00;;;;5065215;28;20272;-43
2023/12/10 10:42:11;;;;;;;6.07;2.60;;;17.60;65.50;18.40;99943.00;;;;5055553;28;20185;-43
2023/12/10 10:44:41;;;;;;;5.13;2.70;;;17.60;65.30;18.40;99955.00;;;;5065704;28;20170;-43
2023/12/10 10:47:07;;;;;;;4.10;2.60;;;17.60;65.30;18.40;99943.00;;;;5055175;28;20224;-43
2023/12/10 10:49:42;;;;;;;4.47;2.63;;;17.60;65.20;18.40;99937.00;;;;5065085;28;20656;-42